AFR1A GMMZ-LFPG
Flight info
| Callsign | AFR1A |
|---|---|
| Flight time | N/A |
| Altitude | 36000 |
| Route | MOGVA DCT KORIS DCT VJF DCT HIJ DCT TLD DCT OSTIX DCT LUSEM DCT LAPOS DCT ADABI DCT GINON |
| Aircraft | A319/M-SDE3FGHIRWY/LB1 |
Departure
| Time | 2026-05-07 15:01 |
|---|---|
| Airport | Ouarzazate International Airport (GMMZ) |
Arrival
| Time | N/A |
|---|---|
| Airport | Charles de Gaulle International Airport (LFPG) |
| Time | Latitude | Longitude | Altitude | Speed | Heading |
|---|---|---|---|---|---|
| 2026-05-07 14:19 | 30.93551 | -6.90708 | 3754 ft | 0 kts | 342° |
| 2026-05-07 14:55 | 30.93553 | -6.90709 | 3754 ft | 1 kts | 342° |
| 2026-05-07 14:55 | 30.93576 | -6.90716 | 3755 ft | 4 kts | 359° |
| 2026-05-07 14:55 | 30.93608 | -6.90706 | 3755 ft | 4 kts | 23° |
| 2026-05-07 14:56 | 30.93660 | -6.90677 | 3754 ft | 13 kts | 26° |
| 2026-05-07 14:56 | 30.93730 | -6.90636 | 3753 ft | 7 kts | 25° |
| 2026-05-07 14:56 | 30.93771 | -6.90650 | 3753 ft | 6 kts | 309° |
| 2026-05-07 14:56 | 30.93820 | -6.90747 | 3755 ft | 22 kts | 298° |
| 2026-05-07 14:57 | 30.93903 | -6.90935 | 3760 ft | 26 kts | 297° |
| 2026-05-07 14:57 | 30.93992 | -6.91142 | 3765 ft | 30 kts | 296° |
| 2026-05-07 14:57 | 30.94079 | -6.91341 | 3769 ft | 24 kts | 297° |
| 2026-05-07 14:57 | 30.94149 | -6.91500 | 3773 ft | 21 kts | 297° |
| 2026-05-07 14:58 | 30.94222 | -6.91669 | 3776 ft | 25 kts | 297° |
| 2026-05-07 14:58 | 30.94302 | -6.91852 | 3781 ft | 26 kts | 296° |
| 2026-05-07 14:58 | 30.94377 | -6.92025 | 3786 ft | 21 kts | 297° |
| 2026-05-07 14:58 | 30.94437 | -6.92161 | 3789 ft | 18 kts | 297° |
| 2026-05-07 14:59 | 30.94495 | -6.92261 | 3790 ft | 12 kts | 324° |
| 2026-05-07 14:59 | 30.94529 | -6.92291 | 3791 ft | 2 kts | 275° |
| 2026-05-07 14:59 | 30.94514 | -6.92314 | 3791 ft | 3 kts | 190° |
| 2026-05-07 14:59 | 30.94500 | -6.92295 | 3791 ft | 3 kts | 118° |
| 2026-05-07 15:00 | 30.94448 | -6.92187 | 3790 ft | 42 kts | 116° |
| 2026-05-07 15:00 | 30.94201 | -6.91619 | 3775 ft | 111 kts | 116° |
| 2026-05-07 15:00 | 30.93762 | -6.90613 | 3754 ft | 168 kts | 117° |
| 2026-05-07 15:00 | 30.93184 | -6.89326 | 4119 ft | 184 kts | 116° |
| 2026-05-07 15:01 | 30.92589 | -6.88000 | 4779 ft | 186 kts | 115° |
| 2026-05-07 15:01 | 30.92155 | -6.86635 | 5512 ft | 179 kts | 92° |
| 2026-05-07 15:01 | 30.92512 | -6.85300 | 5866 ft | 185 kts | 47° |
| 2026-05-07 15:01 | 30.93692 | -6.84594 | 6084 ft | 202 kts | 9° |
| 2026-05-07 15:02 | 30.95150 | -6.84790 | 6312 ft | 221 kts | 342° |
| 2026-05-07 15:02 | 30.96655 | -6.85442 | 6536 ft | 242 kts | 339° |
| 2026-05-07 15:02 | 30.98267 | -6.86176 | 6855 ft | 261 kts | 340° |
| 2026-05-07 15:02 | 31.00010 | -6.86933 | 7218 ft | 279 kts | 340° |
| 2026-05-07 15:03 | 31.01696 | -6.87649 | 7699 ft | 289 kts | 340° |
| 2026-05-07 15:03 | 31.03068 | -6.88226 | 8239 ft | 292 kts | 341° |
| 2026-05-07 15:03 | 31.04499 | -6.88825 | 8845 ft | 293 kts | 340° |
| 2026-05-07 15:03 | 31.07070 | -6.89899 | 9894 ft | 296 kts | 340° |
| 2026-05-07 15:04 | 31.09028 | -6.90714 | 10562 ft | 304 kts | 340° |
| 2026-05-07 15:04 | 31.11071 | -6.91566 | 10986 ft | 322 kts | 339° |
| 2026-05-07 15:04 | 31.13259 | -6.92481 | 11390 ft | 340 kts | 339° |
| 2026-05-07 15:04 | 31.15503 | -6.93419 | 11981 ft | 349 kts | 339° |
| 2026-05-07 15:05 | 31.17791 | -6.94375 | 12778 ft | 352 kts | 338° |
| 2026-05-07 15:05 | 31.20085 | -6.95331 | 13577 ft | 354 kts | 338° |
| 2026-05-07 15:05 | 31.22425 | -6.96310 | 14330 ft | 357 kts | 337° |
| 2026-05-07 15:05 | 31.24763 | -6.97289 | 15029 ft | 360 kts | 337° |
| 2026-05-07 15:06 | 31.27121 | -6.98281 | 15693 ft | 364 kts | 337° |
| 2026-05-07 15:06 | 31.29502 | -6.99280 | 16356 ft | 367 kts | 336° |
| 2026-05-07 15:06 | 31.31929 | -7.00287 | 17012 ft | 371 kts | 338° |
| 2026-05-07 15:06 | 31.34468 | -7.00952 | 17656 ft | 379 kts | 349° |
| 2026-05-07 15:07 | 31.37125 | -7.01037 | 18269 ft | 388 kts | 0° |
| 2026-05-07 15:07 | 31.39822 | -7.00672 | 18896 ft | 393 kts | 4° |
| 2026-05-07 15:07 | 31.42525 | -7.00219 | 19517 ft | 396 kts | 4° |
| 2026-05-07 15:07 | 31.45255 | -6.99748 | 20121 ft | 399 kts | 4° |
| 2026-05-07 15:08 | 31.48034 | -6.99273 | 20682 ft | 403 kts | 4° |
| 2026-05-07 15:08 | 31.50834 | -6.98800 | 21271 ft | 406 kts | 4° |
| 2026-05-07 15:08 | 31.53616 | -6.98335 | 21834 ft | 409 kts | 4° |
| 2026-05-07 15:08 | 31.56447 | -6.97863 | 22351 ft | 412 kts | 4° |
| 2026-05-07 15:09 | 31.59283 | -6.97393 | 22885 ft | 415 kts | 4° |
| 2026-05-07 15:09 | 31.62145 | -6.96918 | 23403 ft | 418 kts | 3° |
| 2026-05-07 15:09 | 31.65073 | -6.96435 | 23926 ft | 421 kts | 3° |
| 2026-05-07 15:09 | 31.67974 | -6.95954 | 24447 ft | 424 kts | 3° |
| 2026-05-07 15:10 | 31.70867 | -6.95475 | 24927 ft | 426 kts | 3° |
| 2026-05-07 15:10 | 31.73811 | -6.94987 | 25407 ft | 429 kts | 3° |
| 2026-05-07 15:10 | 31.76807 | -6.94491 | 25881 ft | 432 kts | 3° |
| 2026-05-07 15:10 | 31.79794 | -6.93996 | 26337 ft | 434 kts | 3° |
| 2026-05-07 15:11 | 31.82757 | -6.93505 | 26781 ft | 437 kts | 3° |
| 2026-05-07 15:11 | 31.85780 | -6.93003 | 27224 ft | 439 kts | 3° |
| 2026-05-07 15:11 | 31.88820 | -6.92498 | 27658 ft | 442 kts | 3° |
| 2026-05-07 15:11 | 31.91886 | -6.91989 | 28090 ft | 444 kts | 2° |
| 2026-05-07 15:12 | 31.94932 | -6.91482 | 28501 ft | 446 kts | 2° |
| 2026-05-07 15:12 | 31.98009 | -6.90971 | 28883 ft | 449 kts | 2° |
| 2026-05-07 15:12 | 32.01153 | -6.90448 | 29273 ft | 452 kts | 2° |
| 2026-05-07 15:12 | 32.04269 | -6.89928 | 29676 ft | 454 kts | 2° |
| 2026-05-07 15:13 | 32.07394 | -6.89407 | 30057 ft | 456 kts | 2° |
| 2026-05-07 15:13 | 32.10552 | -6.88880 | 30544 ft | 455 kts | 2° |
| 2026-05-07 15:13 | 32.13650 | -6.88361 | 31086 ft | 453 kts | 2° |
| 2026-05-07 15:13 | 32.16775 | -6.87837 | 31596 ft | 451 kts | 2° |
| 2026-05-07 15:14 | 32.19886 | -6.87317 | 32085 ft | 450 kts | 2° |
| 2026-05-07 15:14 | 32.22966 | -6.86801 | 32560 ft | 448 kts | 2° |
| 2026-05-07 15:14 | 32.26083 | -6.86278 | 33004 ft | 448 kts | 2° |
| 2026-05-07 15:14 | 32.29131 | -6.85769 | 33433 ft | 447 kts | 2° |
| 2026-05-07 15:15 | 32.32191 | -6.85256 | 33891 ft | 445 kts | 2° |
| 2026-05-07 15:15 | 32.35277 | -6.84738 | 34328 ft | 444 kts | 2° |
| 2026-05-07 15:15 | 32.38329 | -6.84228 | 34701 ft | 445 kts | 2° |
| 2026-05-07 15:15 | 32.41398 | -6.83714 | 35009 ft | 447 kts | 2° |
| 2026-05-07 15:16 | 32.44496 | -6.83195 | 35299 ft | 448 kts | 2° |
| 2026-05-07 15:16 | 32.47553 | -6.82683 | 35580 ft | 450 kts | 2° |
| 2026-05-07 15:16 | 32.50693 | -6.82153 | 35856 ft | 451 kts | 2° |
| 2026-05-07 15:16 | 32.53801 | -6.81630 | 35911 ft | 452 kts | 2° |
| 2026-05-07 15:17 | 32.60006 | -6.80582 | 35921 ft | 452 kts | 2° |
| 2026-05-07 15:17 | 32.66260 | -6.79526 | 35926 ft | 453 kts | 2° |
| 2026-05-07 15:18 | 32.72492 | -6.78471 | 35929 ft | 453 kts | 2° |
| 2026-05-07 15:18 | 32.78719 | -6.77417 | 35931 ft | 453 kts | 2° |
| 2026-05-07 15:19 | 32.84985 | -6.76354 | 35934 ft | 453 kts | 2° |
| 2026-05-07 15:19 | 32.91222 | -6.75294 | 35939 ft | 452 kts | 2° |
| 2026-05-07 15:20 | 32.97430 | -6.74238 | 35939 ft | 452 kts | 2° |
| 2026-05-07 15:20 | 33.03650 | -6.73180 | 35938 ft | 452 kts | 2° |
| 2026-05-07 15:21 | 33.09880 | -6.72117 | 35940 ft | 452 kts | 2° |
| 2026-05-07 15:21 | 33.16129 | -6.71049 | 35939 ft | 451 kts | 2° |
| 2026-05-07 15:22 | 33.22373 | -6.69981 | 35937 ft | 451 kts | 2° |
| 2026-05-07 15:22 | 33.28588 | -6.68917 | 35933 ft | 451 kts | 2° |
| 2026-05-07 15:23 | 33.34782 | -6.67854 | 35930 ft | 451 kts | 2° |
| 2026-05-07 15:23 | 33.41040 | -6.66780 | 35924 ft | 451 kts | 2° |
| 2026-05-07 15:24 | 33.47256 | -6.65711 | 35920 ft | 451 kts | 2° |
| 2026-05-07 15:24 | 33.53448 | -6.64643 | 35917 ft | 451 kts | 1° |
| 2026-05-07 15:25 | 33.59653 | -6.63572 | 35915 ft | 451 kts | 1° |
| 2026-05-07 15:25 | 33.65902 | -6.62493 | 35916 ft | 450 kts | 1° |
| 2026-05-07 15:26 | 33.72095 | -6.61421 | 35913 ft | 450 kts | 1° |
| 2026-05-07 15:26 | 33.78273 | -6.60351 | 35911 ft | 450 kts | 1° |
| 2026-05-07 15:27 | 33.84478 | -6.59274 | 35917 ft | 450 kts | 1° |
| 2026-05-07 15:27 | 33.90681 | -6.58196 | 35918 ft | 450 kts | 1° |
| 2026-05-07 15:28 | 33.96881 | -6.57117 | 35922 ft | 450 kts | 1° |
| 2026-05-07 15:28 | 34.03096 | -6.56034 | 35922 ft | 450 kts | 1° |
| 2026-05-07 15:29 | 34.09279 | -6.54955 | 35929 ft | 450 kts | 1° |
| 2026-05-07 15:29 | 34.15488 | -6.53869 | 35918 ft | 449 kts | 1° |
| 2026-05-07 15:30 | 34.21659 | -6.52789 | 35918 ft | 449 kts | 1° |
| 2026-05-07 15:30 | 34.27877 | -6.51699 | 35918 ft | 449 kts | 1° |
| 2026-05-07 15:31 | 34.34038 | -6.50617 | 35913 ft | 449 kts | 1° |
| 2026-05-07 15:31 | 34.40226 | -6.49528 | 35922 ft | 448 kts | 1° |
| 2026-05-07 15:32 | 34.46391 | -6.48443 | 35919 ft | 448 kts | 1° |
| 2026-05-07 15:32 | 34.52567 | -6.47354 | 35920 ft | 448 kts | 1° |
| 2026-05-07 15:33 | 34.58709 | -6.46267 | 35922 ft | 447 kts | 1° |
| 2026-05-07 15:33 | 34.64863 | -6.45180 | 35918 ft | 448 kts | 1° |
| 2026-05-07 15:34 | 34.71024 | -6.44088 | 35925 ft | 448 kts | 1° |
| 2026-05-07 15:34 | 34.77171 | -6.42998 | 35921 ft | 447 kts | 1° |
| 2026-05-07 15:35 | 34.83327 | -6.41904 | 35922 ft | 447 kts | 1° |
| 2026-05-07 15:35 | 34.89463 | -6.40812 | 36011 ft | 447 kts | 0° |
| 2026-05-07 15:36 | 34.92549 | -6.40263 | 35753 ft | 448 kts | 0° |
| 2026-05-07 15:36 | 34.95628 | -6.39716 | 35848 ft | 448 kts | 1° |
| 2026-05-07 15:36 | 35.01793 | -6.38615 | 35909 ft | 448 kts | 1° |
| 2026-05-07 15:37 | 35.07960 | -6.37511 | 35922 ft | 447 kts | 0° |
| 2026-05-07 15:37 | 35.14149 | -6.36403 | 35923 ft | 447 kts | 0° |
| 2026-05-07 15:38 | 35.20279 | -6.35303 | 35924 ft | 448 kts | 0° |
| 2026-05-07 15:38 | 35.26455 | -6.34195 | 35922 ft | 447 kts | 1° |
| 2026-05-07 15:39 | 35.32611 | -6.33087 | 35922 ft | 447 kts | 1° |
| 2026-05-07 15:39 | 35.38778 | -6.31977 | 35923 ft | 447 kts | 1° |
| 2026-05-07 15:40 | 35.44922 | -6.30869 | 35919 ft | 447 kts | 1° |
| 2026-05-07 15:40 | 35.51061 | -6.29759 | 35922 ft | 447 kts | 1° |
| 2026-05-07 15:41 | 35.57222 | -6.28644 | 35920 ft | 448 kts | 1° |
| 2026-05-07 15:41 | 35.63375 | -6.27530 | 35920 ft | 446 kts | 1° |
| 2026-05-07 15:42 | 35.69495 | -6.26422 | 35922 ft | 446 kts | 1° |
| 2026-05-07 15:42 | 35.75641 | -6.25277 | 35920 ft | 448 kts | 2° |
| 2026-05-07 15:43 | 35.81791 | -6.23506 | 35922 ft | 455 kts | 9° |
| 2026-05-07 15:43 | 35.87757 | -6.20856 | 35924 ft | 462 kts | 16° |
| 2026-05-07 15:44 | 35.93568 | -6.17347 | 35923 ft | 466 kts | 20° |
| 2026-05-07 15:44 | 35.99262 | -6.13623 | 35919 ft | 465 kts | 20° |
| 2026-05-07 15:45 | 36.04974 | -6.09896 | 35916 ft | 465 kts | 20° |
| 2026-05-07 15:45 | 36.10692 | -6.06175 | 35917 ft | 464 kts | 20° |
| 2026-05-07 15:46 | 36.19281 | -6.00583 | 35915 ft | 465 kts | 20° |
| 2026-05-07 15:47 | 36.25110 | -5.97279 | 35909 ft | 457 kts | 13° |
| 2026-05-07 15:47 | 36.31123 | -5.94794 | 35910 ft | 453 kts | 8° |
| 2026-05-07 15:48 | 36.37115 | -5.92565 | 35911 ft | 452 kts | 8° |
| 2026-05-07 15:48 | 36.43146 | -5.90316 | 35908 ft | 452 kts | 8° |
| 2026-05-07 15:49 | 36.49146 | -5.88064 | 35911 ft | 452 kts | 8° |
| 2026-05-07 15:49 | 36.55193 | -5.85789 | 35913 ft | 453 kts | 8° |
| 2026-05-07 15:50 | 36.61217 | -5.83514 | 35912 ft | 452 kts | 8° |
| 2026-05-07 15:50 | 36.67218 | -5.81245 | 35913 ft | 451 kts | 8° |
| 2026-05-07 15:51 | 36.73203 | -5.78977 | 35914 ft | 452 kts | 8° |
| 2026-05-07 15:51 | 36.79218 | -5.76695 | 35912 ft | 451 kts | 8° |
| 2026-05-07 15:52 | 36.85196 | -5.74424 | 35910 ft | 451 kts | 8° |
| 2026-05-07 15:52 | 36.91221 | -5.72130 | 35906 ft | 451 kts | 8° |
| 2026-05-07 15:53 | 36.97200 | -5.69850 | 35905 ft | 451 kts | 8° |
| 2026-05-07 15:53 | 37.03200 | -5.67559 | 35906 ft | 450 kts | 8° |
| 2026-05-07 15:54 | 37.09219 | -5.65257 | 35900 ft | 451 kts | 8° |
| 2026-05-07 15:54 | 37.15223 | -5.62957 | 35904 ft | 450 kts | 8° |
| 2026-05-07 15:55 | 37.21215 | -5.60656 | 35900 ft | 449 kts | 8° |
| 2026-05-07 15:55 | 37.27182 | -5.58364 | 35896 ft | 450 kts | 8° |
| 2026-05-07 15:56 | 37.33169 | -5.56058 | 35891 ft | 450 kts | 8° |
| 2026-05-07 15:56 | 37.39133 | -5.53758 | 35890 ft | 449 kts | 8° |
| 2026-05-07 15:57 | 37.45142 | -5.51436 | 35887 ft | 451 kts | 8° |
| 2026-05-07 15:57 | 37.51138 | -5.49116 | 35881 ft | 450 kts | 8° |
| 2026-05-07 15:58 | 37.57098 | -5.46806 | 35880 ft | 451 kts | 8° |
| 2026-05-07 15:58 | 37.63068 | -5.44487 | 35875 ft | 449 kts | 8° |
| 2026-05-07 15:59 | 37.69047 | -5.42159 | 35875 ft | 449 kts | 8° |
| 2026-05-07 15:59 | 37.75030 | -5.39829 | 35871 ft | 449 kts | 8° |
| 2026-05-07 16:00 | 37.80973 | -5.37511 | 35878 ft | 449 kts | 8° |
| 2026-05-07 16:00 | 37.86931 | -5.35182 | 35872 ft | 449 kts | 8° |
| 2026-05-07 16:01 | 37.92942 | -5.32829 | 35872 ft | 450 kts | 8° |
| 2026-05-07 16:01 | 37.98872 | -5.30501 | 35877 ft | 449 kts | 9° |
| 2026-05-07 16:02 | 38.04853 | -5.28151 | 35884 ft | 449 kts | 9° |
| 2026-05-07 16:02 | 38.10821 | -5.25802 | 35884 ft | 449 kts | 9° |
| 2026-05-07 16:03 | 38.16815 | -5.23438 | 35879 ft | 448 kts | 8° |
| 2026-05-07 16:03 | 38.22776 | -5.21085 | 35884 ft | 448 kts | 8° |
| 2026-05-07 16:04 | 38.28722 | -5.18733 | 35886 ft | 448 kts | 9° |
| 2026-05-07 16:04 | 38.34671 | -5.16375 | 35886 ft | 448 kts | 9° |
| 2026-05-07 16:05 | 38.40604 | -5.14022 | 35886 ft | 447 kts | 9° |
| 2026-05-07 16:05 | 38.46534 | -5.11664 | 35877 ft | 447 kts | 9° |
| 2026-05-07 16:06 | 38.52442 | -5.09130 | 35874 ft | 451 kts | 13° |
| 2026-05-07 16:06 | 38.58272 | -5.06175 | 35877 ft | 451 kts | 14° |
| 2026-05-07 16:07 | 38.64097 | -5.03178 | 35866 ft | 451 kts | 13° |
| 2026-05-07 16:07 | 38.69929 | -5.00180 | 35864 ft | 450 kts | 13° |
| 2026-05-07 16:08 | 38.75729 | -4.97200 | 35854 ft | 451 kts | 13° |
| 2026-05-07 16:08 | 38.81534 | -4.94215 | 35852 ft | 450 kts | 13° |
| 2026-05-07 16:09 | 38.87372 | -4.91207 | 35844 ft | 450 kts | 14° |
| 2026-05-07 16:09 | 38.93175 | -4.88210 | 35850 ft | 449 kts | 13° |
| 2026-05-07 16:10 | 38.98982 | -4.85209 | 35851 ft | 451 kts | 14° |
| 2026-05-07 16:10 | 39.04777 | -4.82206 | 35846 ft | 451 kts | 14° |
| 2026-05-07 16:11 | 39.10554 | -4.79210 | 35850 ft | 450 kts | 14° |
| 2026-05-07 16:11 | 39.16389 | -4.76179 | 35852 ft | 451 kts | 14° |
| 2026-05-07 16:12 | 39.22211 | -4.73143 | 35856 ft | 450 kts | 14° |
| 2026-05-07 16:12 | 39.28038 | -4.70104 | 35860 ft | 451 kts | 14° |
| 2026-05-07 16:13 | 39.33835 | -4.67073 | 35853 ft | 451 kts | 15° |
| 2026-05-07 16:13 | 39.39676 | -4.64016 | 35860 ft | 452 kts | 15° |
| 2026-05-07 16:14 | 39.45489 | -4.60965 | 35865 ft | 453 kts | 15° |
| 2026-05-07 16:14 | 39.51328 | -4.57895 | 35869 ft | 453 kts | 15° |
| 2026-05-07 16:15 | 39.57171 | -4.54818 | 35866 ft | 453 kts | 15° |
| 2026-05-07 16:15 | 39.63004 | -4.51744 | 35869 ft | 454 kts | 15° |
| 2026-05-07 16:16 | 39.68830 | -4.48665 | 35865 ft | 453 kts | 16° |
| 2026-05-07 16:16 | 39.74662 | -4.45575 | 35872 ft | 454 kts | 16° |
| 2026-05-07 16:17 | 39.80524 | -4.42469 | 35864 ft | 455 kts | 16° |
| 2026-05-07 16:17 | 39.86358 | -4.39369 | 35871 ft | 455 kts | 16° |
| 2026-05-07 16:18 | 39.92250 | -4.36233 | 35872 ft | 456 kts | 16° |
| 2026-05-07 16:18 | 39.98018 | -4.32778 | 35858 ft | 460 kts | 23° |
| 2026-05-07 16:19 | 40.03555 | -4.28583 | 35881 ft | 462 kts | 26° |
| 2026-05-07 16:19 | 40.09047 | -4.24237 | 35869 ft | 462 kts | 26° |
| 2026-05-07 16:20 | 40.14580 | -4.19869 | 35858 ft | 462 kts | 27° |
| 2026-05-07 16:20 | 40.20078 | -4.15501 | 35875 ft | 463 kts | 27° |
| 2026-05-07 16:21 | 40.25602 | -4.11113 | 35870 ft | 464 kts | 27° |
| 2026-05-07 16:21 | 40.31104 | -4.06748 | 35872 ft | 465 kts | 27° |
| 2026-05-07 16:22 | 40.36652 | -4.02339 | 35869 ft | 465 kts | 27° |
| 2026-05-07 16:22 | 40.42183 | -3.97935 | 35867 ft | 466 kts | 27° |
| 2026-05-07 16:23 | 40.47722 | -3.93517 | 35873 ft | 467 kts | 28° |
| 2026-05-07 16:23 | 40.53236 | -3.89109 | 35890 ft | 468 kts | 28° |
| 2026-05-07 16:24 | 40.58810 | -3.84645 | 35876 ft | 468 kts | 28° |
| 2026-05-07 16:24 | 40.64359 | -3.80193 | 35886 ft | 469 kts | 28° |
| 2026-05-07 16:24 | 40.67127 | -3.77969 | 36140 ft | 469 kts | 28° |
| 2026-05-07 16:25 | 40.69903 | -3.75737 | 36003 ft | 467 kts | 28° |
| 2026-05-07 16:25 | 40.75431 | -3.71282 | 35926 ft | 469 kts | 28° |
| 2026-05-07 16:26 | 40.81018 | -3.66775 | 35920 ft | 469 kts | 28° |
| 2026-05-07 16:26 | 40.86559 | -3.62292 | 35925 ft | 469 kts | 29° |
| 2026-05-07 16:27 | 40.92112 | -3.57790 | 35925 ft | 469 kts | 29° |
| 2026-05-07 16:27 | 40.97678 | -3.53273 | 35921 ft | 470 kts | 29° |
| 2026-05-07 16:28 | 41.03229 | -3.48756 | 35923 ft | 471 kts | 29° |
| 2026-05-07 16:28 | 41.08827 | -3.44191 | 35928 ft | 471 kts | 29° |
| 2026-05-07 16:29 | 41.14386 | -3.39650 | 35926 ft | 471 kts | 29° |
| 2026-05-07 16:29 | 41.19989 | -3.35065 | 35931 ft | 472 kts | 30° |
| 2026-05-07 16:30 | 41.25617 | -3.30450 | 36116 ft | 475 kts | 30° |
| 2026-05-07 16:30 | 41.28409 | -3.28156 | 36432 ft | 474 kts | 30° |
| 2026-05-07 16:30 | 41.31184 | -3.25876 | 36727 ft | 473 kts | 31° |
| 2026-05-07 16:30 | 41.33982 | -3.23573 | 36983 ft | 472 kts | 31° |
| 2026-05-07 16:31 | 41.36781 | -3.21266 | 37212 ft | 472 kts | 31° |
| 2026-05-07 16:31 | 41.39582 | -3.18957 | 37431 ft | 473 kts | 31° |
| 2026-05-07 16:31 | 41.42366 | -3.16662 | 37632 ft | 473 kts | 31° |
| 2026-05-07 16:31 | 41.45136 | -3.14371 | 37837 ft | 473 kts | 31° |
| 2026-05-07 16:32 | 41.47916 | -3.12071 | 37931 ft | 474 kts | 31° |
| 2026-05-07 16:32 | 41.53656 | -3.07740 | 37948 ft | 473 kts | 26° |
| 2026-05-07 16:33 | 41.59515 | -3.03733 | 37951 ft | 473 kts | 26° |
| 2026-05-07 16:33 | 41.65352 | -2.99754 | 37944 ft | 472 kts | 26° |
| 2026-05-07 16:34 | 41.71180 | -2.95762 | 37955 ft | 472 kts | 26° |
| 2026-05-07 16:34 | 41.77009 | -2.91755 | 37952 ft | 473 kts | 26° |
| 2026-05-07 16:35 | 41.82877 | -2.87711 | 37957 ft | 473 kts | 26° |
| 2026-05-07 16:35 | 41.88705 | -2.83686 | 37963 ft | 473 kts | 26° |
| 2026-05-07 16:36 | 41.94542 | -2.79646 | 37959 ft | 473 kts | 26° |
| 2026-05-07 16:36 | 42.00353 | -2.75616 | 37948 ft | 473 kts | 26° |
| 2026-05-07 16:37 | 42.06196 | -2.71555 | 37946 ft | 473 kts | 26° |
| 2026-05-07 16:37 | 42.12032 | -2.67489 | 37949 ft | 473 kts | 26° |
| 2026-05-07 16:38 | 42.17910 | -2.63386 | 37951 ft | 474 kts | 26° |
| 2026-05-07 16:38 | 42.23743 | -2.59307 | 37953 ft | 474 kts | 26° |
| 2026-05-07 16:39 | 42.29604 | -2.55199 | 37948 ft | 474 kts | 26° |
| 2026-05-07 16:39 | 42.35436 | -2.51103 | 37946 ft | 475 kts | 26° |
| 2026-05-07 16:40 | 42.41304 | -2.46974 | 37946 ft | 474 kts | 26° |
| 2026-05-07 16:40 | 42.47129 | -2.42866 | 37940 ft | 475 kts | 26° |
| 2026-05-07 16:41 | 42.52998 | -2.38719 | 37939 ft | 474 kts | 26° |
| 2026-05-07 16:41 | 42.58838 | -2.34582 | 37936 ft | 475 kts | 27° |
| 2026-05-07 16:42 | 42.64695 | -2.30426 | 37935 ft | 475 kts | 27° |
| 2026-05-07 16:42 | 42.70555 | -2.26256 | 37942 ft | 475 kts | 27° |
| 2026-05-07 16:43 | 42.76400 | -2.22090 | 37938 ft | 475 kts | 27° |
| 2026-05-07 16:43 | 42.82270 | -2.17898 | 37944 ft | 475 kts | 27° |
| 2026-05-07 16:44 | 42.88122 | -2.13709 | 37936 ft | 475 kts | 27° |
| 2026-05-07 16:44 | 42.93956 | -2.09524 | 37937 ft | 474 kts | 27° |
| 2026-05-07 16:45 | 42.99802 | -2.05321 | 37938 ft | 474 kts | 27° |
| 2026-05-07 16:45 | 43.05605 | -2.01141 | 37945 ft | 474 kts | 27° |
| 2026-05-07 16:46 | 43.11483 | -1.96898 | 37943 ft | 475 kts | 27° |
| 2026-05-07 16:46 | 43.14402 | -1.94787 | 37828 ft | 475 kts | 27° |
| 2026-05-07 16:46 | 43.17311 | -1.92682 | 37607 ft | 472 kts | 27° |
| 2026-05-07 16:46 | 43.20163 | -1.90617 | 37195 ft | 461 kts | 27° |
| 2026-05-07 16:47 | 43.22960 | -1.88590 | 36342 ft | 460 kts | 27° |
| 2026-05-07 16:47 | 43.25788 | -1.86540 | 35276 ft | 462 kts | 28° |
| 2026-05-07 16:47 | 43.28605 | -1.84496 | 34108 ft | 465 kts | 28° |
| 2026-05-07 16:47 | 43.31456 | -1.82418 | 32699 ft | 470 kts | 28° |
| 2026-05-07 16:48 | 43.34307 | -1.80335 | 30905 ft | 481 kts | 28° |
| 2026-05-07 16:48 | 43.37213 | -1.78097 | 28638 ft | 493 kts | 31° |
| 2026-05-07 16:48 | 43.40086 | -1.75582 | 26488 ft | 495 kts | 34° |
| 2026-05-07 16:48 | 43.42870 | -1.72993 | 25097 ft | 478 kts | 34° |
| 2026-05-07 16:49 | 43.45553 | -1.70466 | 23977 ft | 457 kts | 34° |
| 2026-05-07 16:49 | 43.48103 | -1.68057 | 22548 ft | 447 kts | 34° |
| 2026-05-07 16:49 | 43.50637 | -1.65626 | 20789 ft | 444 kts | 35° |
| 2026-05-07 16:49 | 43.53126 | -1.63214 | 19240 ft | 437 kts | 34° |
| 2026-05-07 16:50 | 43.55539 | -1.60858 | 17838 ft | 427 kts | 34° |
| 2026-05-07 16:50 | 43.57914 | -1.58533 | 16482 ft | 418 kts | 35° |
| 2026-05-07 16:50 | 43.60241 | -1.56252 | 15155 ft | 409 kts | 35° |
| 2026-05-07 16:50 | 43.62500 | -1.54037 | 13840 ft | 400 kts | 35° |
| 2026-05-07 16:51 | 43.64745 | -1.51842 | 12502 ft | 392 kts | 35° |
| 2026-05-07 16:51 | 43.66917 | -1.49734 | 11417 ft | 383 kts | 35° |
| 2026-05-07 16:51 | 43.69040 | -1.47689 | 10643 ft | 364 kts | 34° |
| 2026-05-07 16:51 | 43.71102 | -1.45879 | 10091 ft | 341 kts | 24° |
| 2026-05-07 16:52 | 43.73312 | -1.45156 | 9879 ft | 320 kts | 359° |
| 2026-05-07 16:52 | 43.75415 | -1.45708 | 9892 ft | 301 kts | 334° |
| 2026-05-07 16:52 | 43.77072 | -1.47342 | 9846 ft | 290 kts | 309° |
| 2026-05-07 16:52 | 43.78048 | -1.49710 | 9532 ft | 285 kts | 283° |
| 2026-05-07 16:53 | 43.78161 | -1.52411 | 9125 ft | 281 kts | 256° |
| 2026-05-07 16:53 | 43.77388 | -1.54834 | 8760 ft | 277 kts | 230° |
| 2026-05-07 16:53 | 43.75926 | -1.56478 | 8388 ft | 275 kts | 204° |
| 2026-05-07 16:53 | 43.74079 | -1.57086 | 8029 ft | 273 kts | 185° |
| 2026-05-07 16:54 | 43.72192 | -1.57225 | 7909 ft | 272 kts | 181° |
| 2026-05-07 16:54 | 43.70280 | -1.57359 | 7918 ft | 273 kts | 186° |
| 2026-05-07 16:54 | 43.68400 | -1.57782 | 7903 ft | 273 kts | 192° |
| 2026-05-07 16:54 | 43.66584 | -1.58468 | 7892 ft | 272 kts | 198° |
| 2026-05-07 16:55 | 43.64827 | -1.59401 | 7633 ft | 270 kts | 204° |
| 2026-05-07 16:55 | 43.63176 | -1.60554 | 7082 ft | 267 kts | 209° |
| 2026-05-07 16:55 | 43.61641 | -1.61915 | 6618 ft | 258 kts | 214° |
| 2026-05-07 16:55 | 43.60243 | -1.63434 | 6106 ft | 253 kts | 220° |
| 2026-05-07 16:56 | 43.58996 | -1.65079 | 5667 ft | 246 kts | 225° |
| 2026-05-07 16:56 | 43.57891 | -1.66832 | 5230 ft | 240 kts | 230° |
| 2026-05-07 16:56 | 43.55971 | -1.70416 | 4429 ft | 227 kts | 232° |
| 2026-05-07 16:57 | 43.55054 | -1.72154 | 4049 ft | 222 kts | 232° |
| 2026-05-07 16:57 | 43.54058 | -1.73691 | 3654 ft | 214 kts | 208° |
| 2026-05-07 16:57 | 43.52669 | -1.74110 | 3422 ft | 202 kts | 174° |
| 2026-05-07 16:57 | 43.51277 | -1.73963 | 3245 ft | 199 kts | 174° |
| 2026-05-07 16:58 | 43.49910 | -1.73882 | 3087 ft | 196 kts | 176° |
| 2026-05-07 16:58 | 43.48567 | -1.73832 | 2946 ft | 191 kts | 176° |
| 2026-05-07 16:58 | 43.47322 | -1.73525 | 2756 ft | 176 kts | 147° |
| 2026-05-07 16:58 | 43.46636 | -1.72289 | 2563 ft | 159 kts | 106° |
| 2026-05-07 16:59 | 43.46567 | -1.70880 | 2506 ft | 137 kts | 89° |
| 2026-05-07 16:59 | 43.46602 | -1.69638 | 2474 ft | 126 kts | 89° |
| 2026-05-07 16:59 | 43.46632 | -1.68444 | 2377 ft | 125 kts | 89° |
| 2026-05-07 16:59 | 43.46657 | -1.67244 | 2194 ft | 124 kts | 90° |
| 2026-05-07 17:00 | 43.46677 | -1.66067 | 2029 ft | 124 kts | 90° |
| 2026-05-07 17:00 | 43.46694 | -1.64882 | 1863 ft | 123 kts | 90° |
| 2026-05-07 17:00 | 43.46709 | -1.63711 | 1701 ft | 123 kts | 90° |
| 2026-05-07 17:00 | 43.46722 | -1.62530 | 1535 ft | 123 kts | 90° |
| 2026-05-07 17:01 | 43.46733 | -1.61357 | 1370 ft | 123 kts | 89° |
| 2026-05-07 17:01 | 43.46746 | -1.60174 | 1208 ft | 122 kts | 89° |
| 2026-05-07 17:01 | 43.46759 | -1.59011 | 1047 ft | 122 kts | 89° |
| 2026-05-07 17:01 | 43.46772 | -1.57845 | 887 ft | 122 kts | 89° |
| 2026-05-07 17:02 | 43.46787 | -1.56678 | 722 ft | 121 kts | 88° |
| 2026-05-07 17:02 | 43.46798 | -1.55530 | 587 ft | 124 kts | 88° |
| 2026-05-07 17:02 | 43.46812 | -1.54299 | 1236 ft | 134 kts | 88° |
| 2026-05-07 17:02 | 43.46836 | -1.52952 | 1926 ft | 153 kts | 88° |
| 2026-05-07 17:03 | 43.46868 | -1.51391 | 2350 ft | 179 kts | 88° |
| 2026-05-07 17:03 | 43.46908 | -1.49622 | 2689 ft | 185 kts | 88° |
| 2026-05-07 17:03 | 43.46955 | -1.47801 | 3059 ft | 198 kts | 88° |
| 2026-05-07 17:03 | 43.47039 | -1.45885 | 3195 ft | 201 kts | 86° |
| 2026-05-07 17:04 | 43.47298 | -1.44012 | 3082 ft | 205 kts | 65° |
| 2026-05-07 17:04 | 43.48330 | -1.42578 | 2520 ft | 223 kts | 27° |
| 2026-05-07 17:04 | 43.49876 | -1.42325 | 2296 ft | 227 kts | 347° |
| 2026-05-07 17:04 | 43.51265 | -1.43201 | 2434 ft | 217 kts | 324° |
| 2026-05-07 17:05 | 43.52374 | -1.44628 | 2775 ft | 221 kts | 315° |
| 2026-05-07 17:05 | 43.53424 | -1.46111 | 3272 ft | 216 kts | 315° |
| 2026-05-07 17:05 | 43.54492 | -1.47591 | 3747 ft | 219 kts | 316° |
| 2026-05-07 17:05 | 43.55589 | -1.49055 | 3977 ft | 221 kts | 316° |
| 2026-05-07 17:06 | 43.56695 | -1.50509 | 3985 ft | 222 kts | 316° |
| 2026-05-07 17:06 | 43.57808 | -1.51976 | 3989 ft | 222 kts | 316° |
| 2026-05-07 17:06 | 43.58925 | -1.53455 | 3990 ft | 222 kts | 316° |
| 2026-05-07 17:06 | 43.59932 | -1.55043 | 3978 ft | 216 kts | 296° |
| 2026-05-07 17:07 | 43.60291 | -1.56964 | 4020 ft | 199 kts | 271° |
| 2026-05-07 17:07 | 43.60254 | -1.58801 | 4018 ft | 190 kts | 263° |
| 2026-05-07 17:07 | 43.60061 | -1.60608 | 3997 ft | 188 kts | 256° |
| 2026-05-07 17:07 | 43.59725 | -1.62325 | 3991 ft | 187 kts | 249° |
| 2026-05-07 17:08 | 43.59240 | -1.63988 | 3990 ft | 186 kts | 242° |
| 2026-05-07 17:08 | 43.58618 | -1.65549 | 3964 ft | 185 kts | 235° |
| 2026-05-07 17:08 | 43.57873 | -1.67004 | 3882 ft | 184 kts | 230° |
| 2026-05-07 17:08 | 43.57105 | -1.68410 | 3794 ft | 183 kts | 230° |
| 2026-05-07 17:09 | 43.56334 | -1.69813 | 3718 ft | 184 kts | 230° |
| 2026-05-07 17:09 | 43.55563 | -1.71230 | 3644 ft | 184 kts | 230° |
| 2026-05-07 17:09 | 43.54799 | -1.72639 | 3572 ft | 184 kts | 230° |
| 2026-05-07 17:09 | 43.53845 | -1.73757 | 3466 ft | 179 kts | 200° |
| 2026-05-07 17:10 | 43.52611 | -1.73999 | 3387 ft | 185 kts | 178° |
| 2026-05-07 17:10 | 43.51318 | -1.73958 | 3132 ft | 185 kts | 175° |
| 2026-05-07 17:10 | 43.50038 | -1.73897 | 2896 ft | 185 kts | 175° |
| 2026-05-07 17:10 | 43.48762 | -1.73846 | 2672 ft | 184 kts | 175° |
| 2026-05-07 17:11 | 43.47495 | -1.73612 | 2477 ft | 180 kts | 153° |
| 2026-05-07 17:11 | 43.46697 | -1.72421 | 2436 ft | 170 kts | 111° |
| 2026-05-07 17:11 | 43.46582 | -1.70817 | 2471 ft | 170 kts | 89° |
| 2026-05-07 17:11 | 43.46617 | -1.69211 | 2487 ft | 169 kts | 89° |
| 2026-05-07 17:12 | 43.46650 | -1.67587 | 2273 ft | 169 kts | 89° |
| 2026-05-07 17:12 | 43.46677 | -1.65981 | 2026 ft | 167 kts | 90° |
| 2026-05-07 17:12 | 43.46700 | -1.64400 | 1798 ft | 165 kts | 90° |
| 2026-05-07 17:12 | 43.46719 | -1.62859 | 1579 ft | 153 kts | 90° |
| 2026-05-07 17:13 | 43.46733 | -1.61455 | 1360 ft | 139 kts | 89° |
| 2026-05-07 17:13 | 43.46746 | -1.60183 | 1163 ft | 126 kts | 89° |
| 2026-05-07 17:13 | 43.46758 | -1.59015 | 994 ft | 122 kts | 88° |
| 2026-05-07 17:13 | 43.46785 | -1.57850 | 885 ft | 122 kts | 87° |
| 2026-05-07 17:14 | 43.46795 | -1.56686 | 710 ft | 120 kts | 87° |
| 2026-05-07 17:14 | 43.46805 | -1.55542 | 583 ft | 120 kts | 88° |
| 2026-05-07 17:14 | 43.46817 | -1.54390 | 398 ft | 120 kts | 87° |
| 2026-05-07 17:14 | 43.46827 | -1.53246 | 249 ft | 117 kts | 88° |
| 2026-05-07 17:15 | 43.46838 | -1.52261 | 231 ft | 80 kts | 88° |
| 2026-05-07 17:15 | 43.46845 | -1.51727 | 224 ft | 31 kts | 90° |
| 2026-05-07 17:15 | 43.46844 | -1.51573 | 224 ft | 11 kts | 91° |
| 2026-05-07 17:15 | 43.46836 | -1.51501 | 224 ft | 5 kts | 71° |
| 2026-05-07 17:16 | 43.46845 | -1.51541 | 224 ft | 7 kts | 270° |
| 2026-05-07 17:16 | 43.46845 | -1.51667 | 224 ft | 17 kts | 269° |
| 2026-05-07 17:16 | 43.46843 | -1.51842 | 225 ft | 18 kts | 269° |
| 2026-05-07 17:16 | 43.46841 | -1.52013 | 227 ft | 17 kts | 269° |
| 2026-05-07 17:17 | 43.46856 | -1.52138 | 229 ft | 10 kts | 308° |
| 2026-05-07 17:17 | 43.46920 | -1.52174 | 229 ft | 9 kts | 357° |
| 2026-05-07 17:17 | 43.46976 | -1.52194 | 230 ft | 4 kts | 321° |
| 2026-05-07 17:17 | 43.46979 | -1.52199 | 230 ft | 0 kts | 314° |
| 2026-05-07 17:19 | 43.46993 | -1.52232 | 230 ft | 6 kts | 287° |
| 2026-05-07 17:19 | 43.46999 | -1.52334 | 233 ft | 11 kts | 270° |
| 2026-05-07 17:20 | 43.46997 | -1.52466 | 235 ft | 14 kts | 269° |
| 2026-05-07 17:20 | 43.46996 | -1.52606 | 237 ft | 14 kts | 268° |
| 2026-05-07 17:20 | 43.46994 | -1.52738 | 239 ft | 13 kts | 269° |
| 2026-05-07 17:20 | 43.47007 | -1.52853 | 240 ft | 11 kts | 303° |
| 2026-05-07 17:21 | 43.47053 | -1.52923 | 240 ft | 6 kts | 304° |
| 2026-05-07 17:21 | 43.47101 | -1.52947 | 240 ft | 8 kts | 357° |
| 2026-05-07 17:21 | 43.47134 | -1.52949 | 240 ft | 0 kts | 358° |